Time;durP1;ratioP1;P1;durP2;ratioP2;P2;SDS_P1;SDS_P2;PMS_P1;PMS_P2;Temp;Humidity;BMP_temperature;BMP_pressure;BME280_temperature;BME280_humidity;BME280_pressure;Samples;Min_cycle;Max_cycle;Signal;HPM_P1;HPM_P2
2023/12/24 00:01:13;;;;;;;1159.13;967.53;;;9.50;99.90;;;;;;5077035;28;20036;-82
2023/12/24 00:03:40;;;;;;;1323.00;992.17;;;8.90;99.90;;;;;;5077551;28;20048;-82
2023/12/24 00:06:07;;;;;;;1262.15;993.78;;;8.90;99.90;;;;;;5061136;28;20033;-82
2023/12/24 00:08:33;;;;;;;1265.18;988.22;;;8.90;99.90;;;;;;5061602;28;20094;-82
2023/12/24 00:10:59;;;;;;;1412.18;999.90;;;9.30;99.90;;;;;;5060275;28;20054;-82
2023/12/24 00:13:26;;;;;;;1056.72;938.05;;;8.90;99.90;;;;;;5060459;28;20029;-82
2023/12/24 00:15:52;;;;;;;1402.22;999.90;;;9.50;99.90;;;;;;5061299;28;20033;-83
2023/12/24 00:18:18;;;;;;;1168.38;959.72;;;8.90;99.90;;;;;;5060825;28;20454;-81
2023/12/24 00:20:44;;;;;;;1339.57;991.78;;;8.90;99.90;;;;;;5076161;28;20040;-82
2023/12/24 00:23:10;;;;;;;1111.80;956.58;;;8.90;99.90;;;;;;5059548;28;20036;-82
2023/12/24 00:25:38;;;;;;;1318.30;996.03;;;9.20;99.90;;;;;;5059780;28;20295;-82
2023/12/24 00:28:04;;;;;;;1089.05;948.00;;;8.90;99.90;;;;;;5059391;28;20047;-82
2023/12/24 00:30:30;;;;;;;1427.82;999.90;;;8.90;99.90;;;;;;5060229;28;20079;-82
2023/12/24 00:32:57;;;;;;;1201.07;959.88;;;9.50;99.90;;;;;;5077021;28;20041;-82
2023/12/24 00:35:23;;;;;;;1037.03;926.78;;;9.60;99.90;;;;;;5076428;28;20032;-82
2023/12/24 00:37:49;;;;;;;1161.70;971.65;;;8.90;99.90;;;;;;5060432;28;20044;-82
2023/12/24 00:40:17;;;;;;;1299.03;994.70;;;9.10;99.90;;;;;;5058878;28;20039;-82
2023/12/24 00:42:43;;;;;;;1234.22;983.33;;;8.90;99.90;;;;;;5058964;28;20045;-82
2023/12/24 00:45:12;;;;;;;1362.88;996.90;;;8.90;99.90;;;;;;5059100;28;20051;-82
2023/12/24 00:47:39;;;;;;;1283.93;988.53;;;9.10;99.90;;;;;;5076270;28;20051;-82
2023/12/24 00:50:06;;;;;;;1171.03;963.97;;;9.00;99.90;;;;;;5057793;28;20040;-82
2023/12/24 00:52:35;;;;;;;1332.70;989.33;;;8.90;99.90;;;;;;5052409;28;20032;-82
2023/12/24 00:55:01;;;;;;;1086.93;946.10;;;8.90;99.90;;;;;;5059305;28;20070;-81
2023/12/24 00:57:26;;;;;;;1330.72;995.53;;;8.90;99.90;;;;;;5074945;28;20435;-82
2023/12/24 00:59:52;;;;;;;1392.95;999.90;;;8.90;99.90;;;;;;5055892;28;20044;-82
2023/12/24 01:02:18;;;;;;;1282.00;992.67;;;9.20;99.90;;;;;;5059017;28;20037;-82
2023/12/24 01:04:43;;;;;;;1276.13;986.60;;;9.60;99.90;;;;;;5076630;28;20059;-82
2023/12/24 01:07:09;;;;;;;1453.90;999.90;;;9.20;99.90;;;;;;5059940;28;20070;-82
2023/12/24 01:09:38;;;;;;;1190.38;956.63;;;9.00;99.90;;;;;;5076150;28;20040;-82
2023/12/24 01:12:05;;;;;;;1360.13;999.90;;;9.00;99.90;;;;;;5058328;28;20036;-82
2023/12/24 01:14:30;;;;;;;1192.95;973.10;;;9.00;99.90;;;;;;5058757;28;20067;-82
2023/12/24 01:16:56;;;;;;;1313.05;999.90;;;8.90;99.90;;;;;;5059368;28;20036;-82
2023/12/24 01:19:22;;;;;;;1436.13;999.90;;;9.00;99.90;;;;;;5059582;28;20460;-82
2023/12/24 01:21:48;;;;;;;1565.85;999.90;;;9.00;99.90;;;;;;5058782;28;20044;-82
2023/12/24 01:24:14;;;;;;;1471.93;999.90;;;9.40;99.90;;;;;;5075967;28;20062;-82
2023/12/24 01:26:40;;;;;;;1237.45;987.55;;;9.00;99.90;;;;;;5056961;28;20044;-82
2023/12/24 01:29:06;;;;;;;1337.18;999.00;;;9.00;99.90;;;;;;5059982;28;20500;-82
2023/12/24 01:31:32;;;;;;;1427.43;999.90;;;9.20;99.90;;;;;;5059403;28;20033;-82
2023/12/24 01:33:58;;;;;;;1298.38;989.95;;;9.00;99.90;;;;;;5059342;28;20036;-82
2023/12/24 01:36:23;;;;;;;1271.05;989.65;;;9.00;99.90;;;;;;5042811;28;20029;-82
2023/12/24 01:38:49;;;;;;;1308.68;999.90;;;9.00;99.90;;;;;;5076468;28;20041;-83
2023/12/24 01:41:15;;;;;;;1481.72;999.90;;;9.60;99.90;;;;;;5060555;28;20044;-82
2023/12/24 01:43:42;;;;;;;1421.75;999.90;;;9.10;99.90;;;;;;5059602;28;20060;-82
2023/12/24 01:46:20;;;;;;;1427.55;999.90;;;9.10;99.90;;;;;;5060734;28;20036;-82
2023/12/24 01:48:48;;;;;;;1416.20;999.90;;;9.00;99.90;;;;;;5059368;28;20032;-82
2023/12/24 01:51:16;;;;;;;1477.38;999.90;;;9.00;99.90;;;;;;5059968;28;20041;-82
2023/12/24 01:53:42;;;;;;;1328.55;987.70;;;9.00;99.90;;;;;;5058787;28;20036;-83
2023/12/24 01:56:08;;;;;;;1172.85;967.13;;;9.30;99.90;;;;;;5066911;28;20024;-82
2023/12/24 01:58:34;;;;;;;1244.50;983.88;;;9.00;99.90;;;;;;5059481;28;20029;-82
2023/12/24 02:01:00;;;;;;;1504.63;999.90;;;9.60;99.90;;;;;;5058799;28;20067;-82
2023/12/24 02:03:26;;;;;;;1438.22;999.90;;;9.20;99.90;;;;;;5071618;28;20094;-82
2023/12/24 02:05:53;;;;;;;1488.75;999.90;;;9.00;99.90;;;;;;5075990;28;20080;-82
2023/12/24 02:08:18;;;;;;;1378.28;999.90;;;9.00;99.90;;;;;;5060061;28;20085;-82
2023/12/24 02:10:45;;;;;;;1530.40;999.90;;;9.00;99.90;;;;;;5054155;28;20097;-82
2023/12/24 02:13:12;;;;;;;1353.75;999.45;;;9.00;99.90;;;;;;5056356;28;20036;-82
2023/12/24 02:15:38;;;;;;;1318.57;991.97;;;9.40;99.90;;;;;;5058848;28;20055;-82
2023/12/24 02:18:06;;;;;;;1341.38;994.53;;;9.00;99.90;;;;;;5059140;28;20048;-82
2023/12/24 02:20:32;;;;;;;1527.70;999.90;;;9.00;99.90;;;;;;5075213;28;20064;-82
2023/12/24 02:22:58;;;;;;;1457.40;999.90;;;9.70;99.90;;;;;;5059689;28;20059;-82
2023/12/24 02:25:24;;;;;;;1403.35;999.90;;;9.00;99.90;;;;;;5075817;28;20053;-82
2023/12/24 02:28:11;;;;;;;1511.35;999.90;;;9.00;99.90;;;;;;5059397;28;20094;-82
2023/12/24 02:30:41;;;;;;;1435.13;999.90;;;9.00;99.90;;;;;;5060244;28;20116;-82
2023/12/24 02:33:09;;;;;;;1672.88;999.90;;;9.40;99.90;;;;;;5076997;28;20051;-82
2023/12/24 02:35:38;;;;;;;1488.03;999.90;;;9.50;99.90;;;;;;5072667;28;20112;-82
2023/12/24 02:38:03;;;;;;;1401.63;996.88;;;9.10;99.90;;;;;;5055674;28;20115;-82
2023/12/24 02:40:29;;;;;;;1369.30;999.90;;;9.10;99.90;;;;;;5059462;28;20075;-82
2023/12/24 02:42:55;;;;;;;1406.35;999.90;;;9.10;99.90;;;;;;5059824;28;20071;-82
2023/12/24 02:45:20;;;;;;;1288.65;989.53;;;9.10;99.90;;;;;;5059232;28;20036;-82
2023/12/24 02:47:46;;;;;;;1423.55;999.90;;;9.10;99.90;;;;;;5058616;28;20164;-82
2023/12/24 02:50:11;;;;;;;1519.53;999.90;;;9.10;99.90;;;;;;5074674;28;20120;-82
2023/12/24 02:52:37;;;;;;;1401.78;999.90;;;9.10;99.90;;;;;;5058470;28;20043;-82
2023/12/24 02:55:03;;;;;;;1280.25;999.90;;;9.10;99.90;;;;;;5058842;28;20041;-82
2023/12/24 02:57:29;;;;;;;1510.88;999.90;;;9.10;99.90;;;;;;5061260;28;20071;-82
2023/12/24 02:59:55;;;;;;;1403.15;999.90;;;9.40;99.90;;;;;;5062044;28;20076;-82
2023/12/24 03:02:20;;;;;;;1277.07;980.30;;;9.40;99.90;;;;;;5061352;28;20051;-82
2023/12/24 03:04:46;;;;;;;1228.70;984.38;;;9.40;99.90;;;;;;5061456;28;20037;-82
2023/12/24 03:07:12;;;;;;;1553.93;999.90;;;9.10;99.90;;;;;;5062062;28;20040;-82
2023/12/24 03:09:38;;;;;;;1296.68;980.20;;;9.50;99.90;;;;;;5062412;28;20053;-82
2023/12/24 03:12:05;;;;;;;1451.53;994.85;;;9.20;99.90;;;;;;5061544;28;20052;-82
2023/12/24 03:14:30;;;;;;;1473.15;999.90;;;9.20;99.90;;;;;;5061179;28;20032;-82
2023/12/24 03:16:56;;;;;;;1506.63;999.90;;;9.20;99.90;;;;;;5062292;28;20097;-82
2023/12/24 03:19:21;;;;;;;1575.03;999.90;;;9.40;99.90;;;;;;5061638;28;20036;-82
2023/12/24 03:21:47;;;;;;;1367.80;997.25;;;10.00;99.90;;;;;;5062215;28;20032;-82
2023/12/24 03:24:13;;;;;;;1462.65;999.90;;;8.50;99.90;;;;;;5062344;28;20033;-82
2023/12/24 03:26:38;;;;;;;1271.78;994.58;;;9.30;99.90;;;;;;5061909;28;20056;-82
2023/12/24 03:29:05;;;;;;;1356.28;999.90;;;9.60;99.90;;;;;;5061132;28;20062;-81
2023/12/24 03:31:31;;;;;;;1335.88;992.83;;;9.20;99.90;;;;;;5060004;28;20472;-82
2023/12/24 03:33:56;;;;;;;1382.78;999.90;;;9.50;99.90;;;;;;5060914;28;20037;-82
2023/12/24 03:36:22;;;;;;;1508.55;999.90;;;9.30;99.90;;;;;;5061689;28;20604;-82
2023/12/24 03:38:48;;;;;;;1401.72;999.10;;;9.30;99.90;;;;;;5052738;28;20037;-82
2023/12/24 03:41:13;;;;;;;1442.47;999.90;;;9.30;99.90;;;;;;5077976;28;20101;-82
2023/12/24 03:43:39;;;;;;;1474.97;999.90;;;9.80;99.90;;;;;;5061169;28;20040;-82
2023/12/24 03:46:05;;;;;;;1538.32;999.90;;;9.30;99.90;;;;;;5077750;28;20064;-82
2023/12/24 03:48:32;;;;;;;1510.32;999.90;;;9.30;99.90;;;;;;5060637;28;20074;-82
2023/12/24 03:50:58;;;;;;;1464.68;999.90;;;9.30;99.90;;;;;;5061421;28;20128;-82
2023/12/24 03:53:23;;;;;;;1517.50;999.90;;;9.30;99.90;;;;;;5061725;28;20500;-82
2023/12/24 03:55:49;;;;;;;1476.32;999.90;;;9.30;99.90;;;;;;5072829;28;20633;-82
2023/12/24 03:58:14;;;;;;;1522.85;999.90;;;9.30;99.90;;;;;;5077553;28;20093;-82
2023/12/24 04:00:40;;;;;;;1366.72;999.90;;;9.70;99.90;;;;;;5061426;28;20047;-82
2023/12/24 04:03:06;;;;;;;1499.80;999.90;;;9.30;99.90;;;;;;5061598;28;20041;-82
2023/12/24 04:05:32;;;;;;;1379.68;996.38;;;9.30;99.90;;;;;;5060493;28;20068;-82
2023/12/24 04:07:58;;;;;;;1453.55;999.90;;;10.20;99.90;;;;;;5059735;28;20044;-82
2023/12/24 04:10:24;;;;;;;1340.47;997.03;;;9.50;99.90;;;;;;5060463;28;20040;-82
2023/12/24 04:12:50;;;;;;;1579.38;999.90;;;9.60;99.90;;;;;;5077301;28;20484;-82
2023/12/24 04:15:15;;;;;;;1448.95;999.90;;;9.30;99.90;;;;;;5059951;28;20037;-82
2023/12/24 04:17:41;;;;;;;1446.50;999.90;;;9.30;99.90;;;;;;5077665;28;20039;-82
2023/12/24 04:20:07;;;;;;;1474.50;999.90;;;9.30;99.90;;;;;;5078269;28;20110;-82
2023/12/24 04:22:33;;;;;;;1425.18;999.90;;;9.30;99.90;;;;;;5077324;28;20036;-82
2023/12/24 04:24:59;;;;;;;1367.65;999.90;;;9.30;99.90;;;;;;5071658;28;20039;-82
2023/12/24 04:27:25;;;;;;;1552.97;999.90;;;9.90;99.90;;;;;;5059083;28;20067;-82
2023/12/24 04:29:51;;;;;;;1504.85;999.90;;;9.20;99.90;;;;;;5060063;28;20040;-81
2023/12/24 04:32:20;;;;;;;1364.22;993.85;;;9.90;99.90;;;;;;5076497;28;20127;-82
2023/12/24 04:34:45;;;;;;;1511.22;999.90;;;9.30;99.90;;;;;;5060061;28;20047;-82
2023/12/24 04:37:12;;;;;;;1456.13;999.90;;;10.20;99.90;;;;;;5076646;28;20404;-82
2023/12/24 04:39:37;;;;;;;1555.50;999.90;;;9.80;99.90;;;;;;5059421;28;20044;-82
2023/12/24 04:42:03;;;;;;;1404.97;992.00;;;9.40;99.90;;;;;;5059059;28;20047;-82
2023/12/24 04:44:29;;;;;;;1557.80;999.90;;;9.40;99.90;;;;;;5059539;28;20040;-81
2023/12/24 04:46:55;;;;;;;1438.82;999.90;;;10.40;99.90;;;;;;5059893;28;20047;-82
2023/12/24 04:49:20;;;;;;;1241.68;989.25;;;9.40;99.90;;;;;;5059680;28;20044;-82
2023/12/24 04:51:46;;;;;;;1554.75;999.90;;;10.30;99.90;;;;;;5059720;28;20060;-82
2023/12/24 04:54:12;;;;;;;1397.35;998.92;;;9.40;99.90;;;;;;5059773;28;20032;-82
2023/12/24 04:56:37;;;;;;;1401.60;999.08;;;10.00;99.90;;;;;;5059814;28;20408;-82
2023/12/24 04:59:03;;;;;;;1418.22;999.90;;;9.40;99.90;;;;;;5059306;28;20032;-82
2023/12/24 05:01:30;;;;;;;1462.35;999.90;;;9.40;99.90;;;;;;5060268;28;20236;-82
2023/12/24 05:03:56;;;;;;;1395.07;998.65;;;9.70;99.90;;;;;;5059928;28;20040;-82
2023/12/24 05:06:21;;;;;;;1451.10;997.85;;;9.40;99.90;;;;;;5058824;28;20048;-81
2023/12/24 05:08:48;;;;;;;1539.45;999.90;;;9.70;99.90;;;;;;5075767;28;20044;-82
2023/12/24 05:11:13;;;;;;;1422.18;999.90;;;9.40;99.90;;;;;;5060039;28;20028;-82
2023/12/24 05:13:39;;;;;;;1438.90;999.90;;;9.40;99.90;;;;;;5042331;28;20314;-82
2023/12/24 05:16:05;;;;;;;1428.65;999.90;;;9.40;99.90;;;;;;5059291;28;20428;-82
2023/12/24 05:18:33;;;;;;;1444.93;997.47;;;9.40;99.90;;;;;;5058709;28;20455;-82
2023/12/24 05:20:59;;;;;;;1480.63;999.90;;;9.60;99.90;;;;;;5059329;28;20056;-82
2023/12/24 05:23:25;;;;;;;1409.97;999.90;;;9.40;99.90;;;;;;5059987;28;20037;-82
2023/12/24 05:25:51;;;;;;;1383.18;991.38;;;9.40;99.90;;;;;;5058725;28;20059;-82
2023/12/24 05:28:17;;;;;;;1397.40;999.90;;;9.40;99.90;;;;;;5058770;28;20489;-82
2023/12/24 05:30:46;;;;;;;1466.93;996.90;;;9.80;99.90;;;;;;5058180;28;20108;-82
2023/12/24 05:33:12;;;;;;;1473.70;999.90;;;9.50;99.90;;;;;;5075187;28;20047;-82
2023/12/24 05:35:38;;;;;;;1546.47;999.90;;;10.10;99.90;;;;;;5075225;28;20056;-82
2023/12/24 05:38:04;;;;;;;1429.65;999.90;;;9.50;99.90;;;;;;5058882;28;20040;-82
2023/12/24 05:40:29;;;;;;;1630.88;999.90;;;9.50;99.90;;;;;;5077155;28;20390;-82
2023/12/24 05:42:55;;;;;;;1538.22;999.90;;;9.50;99.90;;;;;;5076466;28;20235;-82
2023/12/24 05:45:21;;;;;;;1527.32;999.90;;;9.60;99.90;;;;;;5077827;28;20049;-82
2023/12/24 05:47:47;;;;;;;1526.30;999.90;;;9.60;99.90;;;;;;5058551;28;20102;-82
2023/12/24 05:50:13;;;;;;;1490.40;999.90;;;9.70;99.90;;;;;;5058387;28;20413;-82
2023/12/24 05:52:41;;;;;;;1530.18;999.90;;;9.90;99.90;;;;;;5075296;28;20055;-82
2023/12/24 05:55:07;;;;;;;1596.53;999.90;;;10.10;99.90;;;;;;5059634;28;20037;-82
2023/12/24 05:57:34;;;;;;;1586.68;999.90;;;9.70;99.90;;;;;;5058443;28;20528;-82
2023/12/24 05:59:59;;;;;;;1332.30;991.60;;;9.70;99.90;;;;;;5058532;28;20132;-82
2023/12/24 06:02:25;;;;;;;1478.43;999.90;;;9.90;99.90;;;;;;5057706;28;20064;-82
2023/12/24 06:04:50;;;;;;;1596.07;999.90;;;10.00;99.90;;;;;;5059781;28;20050;-82
2023/12/24 06:07:16;;;;;;;1442.60;999.35;;;9.70;99.90;;;;;;5059650;28;20102;-82
2023/12/24 06:09:42;;;;;;;1454.63;999.90;;;9.80;99.90;;;;;;5059732;28;20032;-82
2023/12/24 06:12:08;;;;;;;1576.53;999.90;;;9.80;99.90;;;;;;5058828;28;20032;-82
2023/12/24 06:14:34;;;;;;;1486.68;999.90;;;9.70;99.90;;;;;;5058606;28;20119;-82
2023/12/24 06:16:59;;;;;;;1341.70;998.92;;;10.20;99.90;;;;;;5075820;28;20032;-82
2023/12/24 06:19:25;;;;;;;1401.10;999.60;;;9.80;99.90;;;;;;5058173;28;20100;-82
2023/12/24 06:21:50;;;;;;;1556.25;999.90;;;9.80;99.90;;;;;;5057095;28;20060;-82
2023/12/24 06:24:21;;;;;;;1601.43;999.90;;;9.80;99.90;;;;;;5058440;28;20036;-81
2023/12/24 06:26:48;;;;;;;1511.93;999.90;;;9.40;99.90;;;;;;5057991;28;20059;-82
2023/12/24 06:29:14;;;;;;;1251.93;967.55;;;9.80;99.90;;;;;;5056530;28;20036;-81
2023/12/24 06:31:39;;;;;;;1425.65;997.78;;;9.90;99.90;;;;;;5061255;28;20101;-82
2023/12/24 06:34:05;;;;;;;1697.43;999.90;;;9.90;99.90;;;;;;5062087;28;20068;-82
2023/12/24 06:36:30;;;;;;;1461.00;999.50;;;10.10;99.90;;;;;;5076271;28;20037;-81
2023/12/24 06:38:56;;;;;;;1431.78;998.83;;;9.90;99.90;;;;;;5077653;28;20048;-81
2023/12/24 06:41:23;;;;;;;1358.30;991.10;;;10.50;99.90;;;;;;5061734;28;20056;-81
2023/12/24 06:43:48;;;;;;;1545.90;991.17;;;9.80;99.90;;;;;;5075424;28;20044;-81
2023/12/24 06:46:15;;;;;;;1351.70;993.03;;;9.90;99.90;;;;;;5061305;28;20048;-81
2023/12/24 06:48:41;;;;;;;1479.88;999.90;;;9.90;99.90;;;;;;5061420;28;20036;-82
2023/12/24 06:51:07;;;;;;;1413.50;993.65;;;9.90;99.90;;;;;;5060303;28;20032;-81
2023/12/24 06:53:33;;;;;;;1517.28;998.10;;;9.90;99.90;;;;;;5060074;28;20268;-81
2023/12/24 06:55:58;;;;;;;1386.13;995.67;;;9.90;99.90;;;;;;5060732;28;20051;-81
2023/12/24 06:58:24;;;;;;;1468.32;999.90;;;9.90;99.90;;;;;;5060525;28;20032;-81
2023/12/24 07:00:49;;;;;;;1377.32;989.15;;;9.90;99.90;;;;;;5077827;28;20131;-81
2023/12/24 07:03:15;;;;;;;1379.43;999.50;;;9.90;99.90;;;;;;5076409;28;20040;-81
2023/12/24 07:05:41;;;;;;;1552.75;999.90;;;9.90;99.90;;;;;;5073003;28;20099;-81
2023/12/24 07:08:08;;;;;;;1434.60;999.90;;;9.90;99.90;;;;;;5061149;28;20037;-81
2023/12/24 07:10:36;;;;;;;1420.65;998.45;;;10.00;99.90;;;;;;5059236;28;20032;-81
2023/12/24 07:13:02;;;;;;;1652.25;999.90;;;9.90;99.90;;;;;;5061307;28;20498;-81
2023/12/24 07:15:31;;;;;;;1375.50;995.67;;;9.90;99.90;;;;;;5059730;28;20060;-81
2023/12/24 07:17:57;;;;;;;1344.82;989.33;;;9.90;99.90;;;;;;5078023;28;20112;-82
2023/12/24 07:20:24;;;;;;;1478.25;994.78;;;10.10;99.90;;;;;;5065759;28;20067;-81
2023/12/24 07:22:49;;;;;;;1303.15;991.80;;;10.00;99.90;;;;;;5067568;28;20037;-83
2023/12/24 07:25:15;;;;;;;1363.22;996.80;;;10.10;99.90;;;;;;5065349;28;20028;-83
2023/12/24 07:27:43;;;;;;;1265.80;977.28;;;10.40;99.90;;;;;;5066976;28;20045;-83
2023/12/24 07:30:10;;;;;;;1328.10;989.28;;;10.00;99.90;;;;;;5068349;28;20032;-84
2023/12/24 07:32:35;;;;;;;1263.47;989.17;;;10.10;99.90;;;;;;5051801;28;20043;-82
2023/12/24 07:35:01;;;;;;;1347.00;999.90;;;10.40;99.90;;;;;;5068380;28;20100;-83
2023/12/24 07:37:26;;;;;;;1254.68;991.40;;;10.30;99.90;;;;;;5067276;28;20600;-83
2023/12/24 07:39:52;;;;;;;1249.32;978.67;;;10.60;99.90;;;;;;5068134;28;20127;-83
2023/12/24 07:42:18;;;;;;;1317.88;992.00;;;10.20;99.90;;;;;;5066979;28;20857;-83
2023/12/24 07:44:44;;;;;;;1315.97;989.88;;;10.20;99.90;;;;;;5067083;28;20107;-83
2023/12/24 07:47:10;;;;;;;1323.20;992.40;;;10.60;99.90;;;;;;5067314;28;20070;-82
2023/12/24 07:49:35;;;;;;;1261.35;988.85;;;10.20;99.90;;;;;;5067001;28;20087;-82
2023/12/24 07:52:01;;;;;;;1376.68;992.45;;;10.50;99.90;;;;;;5067154;28;20037;-83
2023/12/24 07:54:30;;;;;;;1292.00;981.92;;;9.70;99.90;;;;;;5084198;28;20062;-83
2023/12/24 07:56:55;;;;;;;1319.38;993.70;;;10.10;99.90;;;;;;5084083;28;20036;-82
2023/12/24 07:59:21;;;;;;;1448.78;999.47;;;11.00;99.90;;;;;;5066739;28;20451;-83
2023/12/24 08:01:47;;;;;;;1292.15;990.30;;;10.20;99.90;;;;;;5066998;28;20400;-82
2023/12/24 08:04:12;;;;;;;1265.10;977.08;;;10.30;99.90;;;;;;5067870;28;20036;-82
2023/12/24 08:06:38;;;;;;;1328.90;988.25;;;10.30;99.90;;;;;;5066612;28;20092;-82
2023/12/24 08:09:04;;;;;;;1415.40;990.67;;;10.70;99.90;;;;;;5067183;28;20040;-82
2023/12/24 08:11:29;;;;;;;1434.28;998.30;;;11.20;99.90;;;;;;5066361;28;20028;-82
2023/12/24 08:13:55;;;;;;;1529.68;999.90;;;10.30;99.90;;;;;;5083033;28;20937;-82
2023/12/24 08:16:21;;;;;;;1462.20;999.90;;;10.40;99.90;;;;;;5082779;28;20033;-83
2023/12/24 08:18:46;;;;;;;1288.45;985.17;;;10.40;99.90;;;;;;5067081;28;20045;-82
2023/12/24 08:21:12;;;;;;;1519.72;999.90;;;10.80;99.90;;;;;;5066761;28;20602;-82
2023/12/24 08:23:38;;;;;;;1427.78;997.33;;;10.40;99.90;;;;;;5065811;28;20067;-83
2023/12/24 08:26:04;;;;;;;1299.60;984.10;;;10.40;99.90;;;;;;5066344;28;20052;-82
2023/12/24 08:28:30;;;;;;;1250.88;961.35;;;9.80;99.90;;;;;;5065678;28;20051;-83
2023/12/24 08:30:56;;;;;;;1369.22;992.65;;;11.30;99.90;;;;;;5082310;28;20040;-83
2023/12/24 08:33:21;;;;;;;1244.18;971.33;;;10.30;99.90;;;;;;5066010;28;20036;-82
2023/12/24 08:35:47;;;;;;;1289.20;976.67;;;11.20;99.90;;;;;;5066599;28;20497;-82
2023/12/24 08:38:12;;;;;;;1132.65;945.70;;;10.40;99.90;;;;;;5065831;28;20081;-82
2023/12/24 08:40:38;;;;;;;1272.68;978.00;;;10.50;99.90;;;;;;5066226;28;20062;-82
2023/12/24 08:43:04;;;;;;;1439.60;993.20;;;10.40;99.90;;;;;;5066096;28;20051;-83
2023/12/24 08:45:30;;;;;;;1419.38;988.35;;;10.50;99.90;;;;;;5066027;28;20119;-82
2023/12/24 08:47:55;;;;;;;1305.93;981.53;;;10.90;99.90;;;;;;5065369;28;20102;-82
2023/12/24 08:50:21;;;;;;;1291.00;992.33;;;11.20;99.90;;;;;;5082711;28;20040;-82
2023/12/24 08:52:47;;;;;;;1372.78;993.92;;;10.50;99.90;;;;;;5065396;28;20036;-82
2023/12/24 08:55:15;;;;;;;1206.15;964.67;;;10.40;99.90;;;;;;5065410;28;20036;-82
2023/12/24 08:57:41;;;;;;;1311.45;985.30;;;10.70;99.90;;;;;;5065760;28;20036;-82
2023/12/24 09:00:11;;;;;;;1271.10;983.75;;;11.50;99.90;;;;;;5065161;28;20047;-82
2023/12/24 09:02:38;;;;;;;1355.00;988.25;;;10.50;99.90;;;;;;5065799;28;20078;-82
2023/12/24 09:05:04;;;;;;;1307.25;981.08;;;10.50;99.90;;;;;;5065680;28;20040;-83
2023/12/24 09:07:30;;;;;;;1417.05;990.40;;;10.50;99.90;;;;;;5065400;28;20032;-82
2023/12/24 09:09:55;;;;;;;1317.03;978.55;;;10.50;99.90;;;;;;5082987;28;20556;-82
2023/12/24 09:12:21;;;;;;;1132.60;945.47;;;10.50;99.90;;;;;;5065591;28;20032;-82
2023/12/24 09:14:47;;;;;;;1398.47;996.50;;;10.80;99.90;;;;;;5065651;28;20044;-82
2023/12/24 09:17:12;;;;;;;1370.57;992.55;;;10.60;99.90;;;;;;5065318;28;20072;-82
2023/12/24 09:19:38;;;;;;;1341.40;990.60;;;10.50;99.90;;;;;;5065617;28;20127;-83
2023/12/24 09:22:03;;;;;;;1292.10;966.67;;;10.60;99.90;;;;;;5065519;28;20044;-83
2023/12/24 09:24:29;;;;;;;1208.47;958.20;;;10.80;99.90;;;;;;5065298;28;20033;-82
2023/12/24 09:26:55;;;;;;;1105.95;888.85;;;11.10;99.90;;;;;;5082151;28;20049;-82
2023/12/24 09:29:21;;;;;;;1312.93;974.00;;;10.70;99.90;;;;;;5065237;28;20037;-82
2023/12/24 09:31:47;;;;;;;1333.22;995.30;;;10.60;99.90;;;;;;5061146;28;20068;-82
2023/12/24 09:34:13;;;;;;;1371.40;987.78;;;10.60;99.90;;;;;;5065666;28;20048;-82
2023/12/24 09:36:39;;;;;;;1188.60;960.60;;;10.60;99.90;;;;;;5064874;28;20059;-82
2023/12/24 09:39:05;;;;;;;1305.30;985.22;;;11.40;99.90;;;;;;5065981;28;20120;-82
2023/12/24 09:41:30;;;;;;;1337.00;985.85;;;10.60;99.90;;;;;;5065853;28;20463;-82
2023/12/24 09:43:56;;;;;;;1170.15;962.88;;;11.20;99.90;;;;;;5066142;28;20048;-82
2023/12/24 09:46:22;;;;;;;1334.53;991.30;;;10.80;99.90;;;;;;5064830;28;20040;-82
2023/12/24 09:48:47;;;;;;;1202.38;954.33;;;10.90;99.90;;;;;;5065162;28;20119;-82
2023/12/24 09:51:13;;;;;;;1191.22;958.42;;;10.10;99.90;;;;;;5065309;28;20072;-83
2023/12/24 09:53:45;;;;;;;1177.93;952.65;;;10.80;99.90;;;;;;5065626;28;20136;-83
2023/12/24 09:56:10;;;;;;;1317.95;984.42;;;10.70;99.90;;;;;;5064811;28;20077;-82
2023/12/24 09:58:36;;;;;;;1325.57;968.33;;;11.40;99.90;;;;;;5065390;28;20041;-82
2023/12/24 10:01:02;;;;;;;1143.97;948.03;;;11.10;99.90;;;;;;5065361;28;20211;-82
2023/12/24 10:03:27;;;;;;;1180.50;936.08;;;10.70;99.90;;;;;;5064535;28;20037;-82
2023/12/24 10:06:07;;;;;;;1122.82;944.42;;;10.70;99.90;;;;;;5067654;28;20036;-82
2023/12/24 10:08:34;;;;;;;1214.57;949.03;;;10.80;99.90;;;;;;5082600;28;20039;-82
2023/12/24 10:11:25;;;;;;;1192.55;946.38;;;10.80;99.90;;;;;;5068574;28;20055;-82
2023/12/24 10:13:59;;;;;;;1134.63;930.67;;;10.80;99.90;;;;;;5086446;28;20040;-82
2023/12/24 10:16:25;;;;;;;1227.47;974.33;;;11.00;99.90;;;;;;5045643;28;20125;-82
2023/12/24 10:18:52;;;;;;;1134.63;930.88;;;10.80;99.90;;;;;;5069891;28;20283;-82
2023/12/24 10:21:20;;;;;;;1235.13;951.55;;;10.90;99.90;;;;;;5068812;28;20044;-82
2023/12/24 10:23:46;;;;;;;1354.47;982.08;;;10.80;99.90;;;;;;5069690;28;20408;-82
2023/12/24 10:26:12;;;;;;;1340.53;980.13;;;11.00;99.90;;;;;;5069127;28;20068;-83
2023/12/24 10:28:49;;;;;;;1124.32;927.88;;;10.80;99.90;;;;;;5069135;28;20044;-83
2023/12/24 10:31:17;;;;;;;1296.63;974.53;;;10.90;99.90;;;;;;5068392;28;20044;-82
2023/12/24 10:33:43;;;;;;;1190.43;950.33;;;11.60;99.90;;;;;;5067073;28;20032;-82
2023/12/24 10:36:09;;;;;;;1195.95;954.10;;;11.00;99.90;;;;;;5059903;28;20043;-83
2023/12/24 10:38:36;;;;;;;1157.40;946.03;;;11.10;99.90;;;;;;5057681;28;20037;-82
2023/12/24 10:41:02;;;;;;;1275.00;977.60;;;11.20;99.90;;;;;;5057956;28;20036;-83
2023/12/24 10:43:28;;;;;;;1167.47;940.08;;;11.00;99.90;;;;;;5057989;28;20068;-85
2023/12/24 10:45:55;;;;;;;1174.75;953.33;;;11.10;99.90;;;;;;5057791;28;20494;-82
2023/12/24 10:48:21;;;;;;;1134.13;936.03;;;11.10;99.90;;;;;;5057669;28;20036;-82
2023/12/24 10:50:47;;;;;;;1203.85;951.47;;;11.40;99.90;;;;;;5074159;28;20044;-82
2023/12/24 10:53:13;;;;;;;1125.45;941.05;;;11.20;99.90;;;;;;5057023;28;20100;-82
2023/12/24 10:55:44;;;;;;;1180.28;962.22;;;11.20;99.90;;;;;;5071119;28;20024;-82
2023/12/24 10:59:01;;;;;;;1076.10;932.15;;;11.40;99.90;;;;;;5073551;28;20046;-82
2023/12/24 11:01:27;;;;;;;1174.57;967.70;;;11.20;99.90;;;;;;5016702;28;20040;-82
2023/12/24 11:03:53;;;;;;;1156.45;972.03;;;11.30;99.90;;;;;;5058198;28;20120;-82
2023/12/24 11:06:51;;;;;;;1189.55;966.08;;;11.30;99.90;;;;;;5056924;28;20040;-82
2023/12/24 11:09:17;;;;;;;1170.13;969.10;;;11.30;99.90;;;;;;5023897;28;20041;-81
2023/12/24 11:11:53;;;;;;;1205.25;908.38;;;11.40;99.90;;;;;;5070000;28;20043;-82
2023/12/24 11:14:37;;;;;;;982.00;862.78;;;11.40;99.90;;;;;;5072820;28;20078;-83
2023/12/24 11:17:05;;;;;;;974.90;876.58;;;11.30;99.90;;;;;;5053669;28;20489;-83
2023/12/24 11:19:32;;;;;;;810.88;740.70;;;11.40;99.90;;;;;;5073893;28;20116;-83
2023/12/24 11:22:09;;;;;;;857.10;773.28;;;11.70;99.90;;;;;;5056229;28;20427;-83
2023/12/24 11:24:41;;;;;;;792.95;723.55;;;11.60;99.90;;;;;;5072498;28;20029;-82
2023/12/24 11:27:08;;;;;;;788.13;722.40;;;11.70;99.90;;;;;;5056534;28;20087;-83
2023/12/24 11:29:49;;;;;;;722.47;665.63;;;11.40;99.90;;;;;;5056350;28;20036;-83
2023/12/24 11:32:24;;;;;;;723.65;663.55;;;11.40;99.90;;;;;;5072844;28;20115;-82
2023/12/24 11:34:50;;;;;;;810.15;740.67;;;11.40;99.90;;;;;;5057039;28;20041;-82
2023/12/24 11:37:29;;;;;;;778.40;712.33;;;12.10;99.90;;;;;;5056683;28;20083;-83
2023/12/24 11:40:03;;;;;;;816.63;748.65;;;11.40;99.90;;;;;;5052636;28;20036;-83
2023/12/24 11:42:41;;;;;;;797.00;727.42;;;11.50;99.90;;;;;;5052731;28;20094;-82
2023/12/24 11:45:07;;;;;;;824.03;753.78;;;11.80;99.90;;;;;;5059333;28;20590;-82
2023/12/24 11:47:33;;;;;;;833.85;763.55;;;11.50;99.90;;;;;;5056276;28;20037;-82
2023/12/24 11:49:59;;;;;;;749.42;690.03;;;11.60;99.90;;;;;;5056311;28;20036;-82
2023/12/24 11:52:26;;;;;;;731.03;675.60;;;11.50;99.90;;;;;;5069937;28;20070;-82
2023/12/24 11:54:52;;;;;;;620.90;574.10;;;11.60;99.90;;;;;;5074059;28;20044;-83
2023/12/24 11:57:25;;;;;;;699.05;645.50;;;11.70;99.90;;;;;;5072299;28;20512;-83
2023/12/24 11:59:50;;;;;;;858.53;784.65;;;11.50;99.90;;;;;;5055676;28;20044;-82
2023/12/24 12:02:16;;;;;;;688.45;635.08;;;11.50;99.90;;;;;;5057141;28;20043;-82
2023/12/24 12:04:42;;;;;;;702.47;647.50;;;11.50;99.90;;;;;;5071955;28;20033;-82